Estación Meteorológica Peña el Pijo (Robertgarden) [ 07/07/20 11:14:05 CEST ]

Fecha Hora Presion(HPa) Temp (°C) Humedad % Rocio (°C) Viento ( m/s) Direccion Lluvia 1Hora(mm) Lluvia 24H(mm) LLuvia Total(mm)
2020-Jul-03 01:01:53 1011.400 15.8 51 5.7         48.69
2020-Jul-03 02:01:43 1011.400 15.4 54 6.1         48.69
2020-Jul-03 03:01:37 1011.300 15.0 53 5.5         48.69
2020-Jul-03 04:01:37 1011.100 13.9 55 5.0         48.69
2020-Jul-03 05:01:42 1011.100 13.3 56 4.7         48.69
2020-Jul-03 06:01:38 1011.300 12.5 58 4.4         48.69
2020-Jul-03 07:01:17 1011.200 12.2 58 4.2         48.69
2020-Jul-03 08:01:55 1011.400 15.3 59 7.3         48.69
2020-Jul-03 09:02:03 1011.600 22.7 44 9.8         48.69
2020-Jul-03 10:02:01 1011.600 27.6 36 11.1         48.69
2020-Jul-03 11:01:59 1011.400 30.3 30 10.8         48.69
2020-Jul-03 12:01:46 1011.500 32.3 26 10.1         48.69
2020-Jul-03 13:01:41 1011.500 33.7 25 10.7         48.69
2020-Jul-03 14:01:25 1011.300 32.9 24 9.4         48.69
2020-Jul-03 15:01:31 1010.900 35.8 23 11.2         48.69
2020-Jul-03 16:01:42 1010.900 35.2 26 12.6         48.69
2020-Jul-03 17:01:46 1011.000 33.0 31 13.6 3.2 SW     48.69
2020-Jul-03 18:01:45 1010.800 33.5 32 14.5         48.69
2020-Jul-03 19:01:43 1010.800 30.1 42 15.8         48.69
2020-Jul-03 20:01:42 1011.500 27.3 50 16.0         48.69
2020-Jul-03 21:01:58 1012.000 24.4 57 15.3         48.69
2020-Jul-03 22:01:59 1012.600 22.4 63 15.0         48.69
2020-Jul-03 23:01:54 1013.400 20.3 65 13.5         48.69

Temperatura Máxima:35°    Temperatura Mínima:12°
Presión Máxima:1013.400 Hpa    Presión Mínima:1010.800 Hpa


Volver